NKS003 KDTW-KDFW
Flight info
| Callsign | NKS003 |
|---|---|
| Flight time | 2h 27m |
| Altitude | 36000 |
| Route | SNDRS3 BGHRT STL RZC FSM RRNET SEEVR4 |
| Aircraft | A320/M-SDE3FGHIRWY/LB1 |
Departure
| Time | 2026-05-04 20:12 |
|---|---|
| Airport | Detroit Metropolitan Wayne County Airport (KDTW) |
Arrival
| Time | 2026-05-04 22:39 |
|---|---|
| Airport | Dallas Fort Worth International Airport (KDFW) |
| Time | Latitude | Longitude | Altitude | Speed | Heading |
|---|---|---|---|---|---|
| 2026-05-04 20:03 | 42.22211 | -83.35093 | 646 ft | 0 kts | 349° |
| 2026-05-04 20:06 | 42.22185 | -83.35087 | 647 ft | 9 kts | 350° |
| 2026-05-04 20:06 | 42.22125 | -83.35075 | 647 ft | 8 kts | 10° |
| 2026-05-04 20:06 | 42.22093 | -83.35129 | 647 ft | 4 kts | 89° |
| 2026-05-04 20:06 | 42.22093 | -83.35113 | 646 ft | 6 kts | 88° |
| 2026-05-04 20:07 | 42.22090 | -83.35029 | 646 ft | 10 kts | 103° |
| 2026-05-04 20:07 | 42.22046 | -83.34941 | 647 ft | 13 kts | 125° |
| 2026-05-04 20:07 | 42.22023 | -83.34820 | 646 ft | 10 kts | 87° |
| 2026-05-04 20:07 | 42.22024 | -83.34756 | 646 ft | 3 kts | 89° |
| 2026-05-04 20:08 | 42.22002 | -83.34710 | 646 ft | 7 kts | 174° |
| 2026-05-04 20:08 | 42.21930 | -83.34708 | 646 ft | 0 kts | 174° |
| 2026-05-04 20:08 | 42.21897 | -83.34704 | 647 ft | 15 kts | 176° |
| 2026-05-04 20:09 | 42.21839 | -83.34628 | 647 ft | 14 kts | 97° |
| 2026-05-04 20:09 | 42.21838 | -83.34532 | 647 ft | 0 kts | 87° |
| 2026-05-04 20:09 | 42.21879 | -83.34483 | 647 ft | 31 kts | 26° |
| 2026-05-04 20:09 | 42.22094 | -83.34327 | 647 ft | 37 kts | 28° |
| 2026-05-04 20:10 | 42.22319 | -83.34159 | 646 ft | 37 kts | 28° |
| 2026-05-04 20:10 | 42.22547 | -83.33992 | 646 ft | 38 kts | 29° |
| 2026-05-04 20:10 | 42.22754 | -83.33831 | 647 ft | 17 kts | 53° |
| 2026-05-04 20:10 | 42.22703 | -83.33718 | 647 ft | 13 kts | 169° |
| 2026-05-04 20:11 | 42.22657 | -83.33744 | 647 ft | 0 kts | 207° |
| 2026-05-04 20:11 | 42.22564 | -83.33809 | 647 ft | 50 kts | 207° |
| 2026-05-04 20:11 | 42.22020 | -83.34205 | 646 ft | 123 kts | 208° |
| 2026-05-04 20:11 | 42.21115 | -83.34883 | 719 ft | 170 kts | 208° |
| 2026-05-04 20:12 | 42.20010 | -83.35696 | 1225 ft | 192 kts | 208° |
| 2026-05-04 20:12 | 42.18746 | -83.36547 | 1924 ft | 210 kts | 204° |
| 2026-05-04 20:12 | 42.17338 | -83.37194 | 2570 ft | 223 kts | 199° |
| 2026-05-04 20:12 | 42.15773 | -83.37781 | 3074 ft | 242 kts | 198° |
| 2026-05-04 20:13 | 42.14130 | -83.38358 | 3925 ft | 245 kts | 198° |
| 2026-05-04 20:13 | 42.12475 | -83.38941 | 4816 ft | 247 kts | 198° |
| 2026-05-04 20:13 | 42.10804 | -83.39539 | 5667 ft | 250 kts | 200° |
| 2026-05-04 20:13 | 42.09111 | -83.40160 | 6478 ft | 254 kts | 201° |
| 2026-05-04 20:14 | 42.07417 | -83.40898 | 6887 ft | 254 kts | 212° |
| 2026-05-04 20:14 | 42.05958 | -83.42200 | 6995 ft | 251 kts | 219° |
| 2026-05-04 20:14 | 42.04546 | -83.43577 | 7010 ft | 250 kts | 220° |
| 2026-05-04 20:14 | 42.03142 | -83.44958 | 7023 ft | 250 kts | 220° |
| 2026-05-04 20:15 | 42.01742 | -83.46339 | 7016 ft | 249 kts | 220° |
| 2026-05-04 20:15 | 42.00345 | -83.47716 | 7015 ft | 249 kts | 220° |
| 2026-05-04 20:15 | 41.98946 | -83.49093 | 7020 ft | 249 kts | 220° |
| 2026-05-04 20:15 | 41.97544 | -83.50508 | 7432 ft | 253 kts | 221° |
| 2026-05-04 20:16 | 41.96147 | -83.51955 | 8304 ft | 254 kts | 222° |
| 2026-05-04 20:16 | 41.94745 | -83.53419 | 9109 ft | 257 kts | 222° |
| 2026-05-04 20:16 | 41.93322 | -83.54905 | 9834 ft | 261 kts | 222° |
| 2026-05-04 20:16 | 41.91868 | -83.56422 | 10365 ft | 273 kts | 222° |
| 2026-05-04 20:17 | 41.90307 | -83.58050 | 10524 ft | 295 kts | 222° |
| 2026-05-04 20:17 | 41.88634 | -83.59786 | 10862 ft | 309 kts | 221° |
| 2026-05-04 20:17 | 41.86914 | -83.61555 | 11475 ft | 314 kts | 221° |
| 2026-05-04 20:17 | 41.85168 | -83.63342 | 12139 ft | 317 kts | 221° |
| 2026-05-04 20:18 | 41.83428 | -83.65121 | 12788 ft | 319 kts | 221° |
| 2026-05-04 20:18 | 41.81654 | -83.66935 | 13437 ft | 322 kts | 222° |
| 2026-05-04 20:18 | 41.79841 | -83.68793 | 13995 ft | 326 kts | 222° |
| 2026-05-04 20:18 | 41.78057 | -83.70624 | 14525 ft | 329 kts | 222° |
| 2026-05-04 20:19 | 41.76228 | -83.72503 | 15038 ft | 333 kts | 222° |
| 2026-05-04 20:19 | 41.74378 | -83.74400 | 15566 ft | 337 kts | 222° |
| 2026-05-04 20:19 | 41.72506 | -83.76318 | 16087 ft | 341 kts | 222° |
| 2026-05-04 20:19 | 41.70615 | -83.78253 | 16623 ft | 344 kts | 221° |
| 2026-05-04 20:20 | 41.68599 | -83.80044 | 17147 ft | 351 kts | 216° |
| 2026-05-04 20:20 | 41.66491 | -83.81736 | 17691 ft | 355 kts | 216° |
| 2026-05-04 20:20 | 41.64365 | -83.83438 | 18231 ft | 358 kts | 216° |
| 2026-05-04 20:20 | 41.62215 | -83.85159 | 18723 ft | 361 kts | 216° |
| 2026-05-04 20:21 | 41.60047 | -83.86897 | 19193 ft | 365 kts | 216° |
| 2026-05-04 20:21 | 41.57866 | -83.88649 | 19653 ft | 368 kts | 215° |
| 2026-05-04 20:21 | 41.53438 | -83.92199 | 20580 ft | 374 kts | 215° |
| 2026-05-04 20:22 | 41.51202 | -83.93986 | 21028 ft | 376 kts | 215° |
| 2026-05-04 20:22 | 41.48946 | -83.95789 | 21472 ft | 379 kts | 215° |
| 2026-05-04 20:22 | 41.46673 | -83.97605 | 21922 ft | 382 kts | 215° |
| 2026-05-04 20:22 | 41.44385 | -83.99432 | 22352 ft | 385 kts | 215° |
| 2026-05-04 20:23 | 41.42111 | -84.01246 | 22761 ft | 387 kts | 215° |
| 2026-05-04 20:23 | 41.39758 | -84.03120 | 23177 ft | 390 kts | 215° |
| 2026-05-04 20:23 | 41.37450 | -84.04955 | 23535 ft | 393 kts | 214° |
| 2026-05-04 20:23 | 41.35092 | -84.06828 | 23894 ft | 396 kts | 214° |
| 2026-05-04 20:24 | 41.32718 | -84.08714 | 24257 ft | 398 kts | 214° |
| 2026-05-04 20:24 | 41.30331 | -84.10610 | 24609 ft | 400 kts | 215° |
| 2026-05-04 20:24 | 41.27931 | -84.12515 | 24969 ft | 403 kts | 214° |
| 2026-05-04 20:24 | 41.25515 | -84.14433 | 25317 ft | 405 kts | 215° |
| 2026-05-04 20:25 | 41.23095 | -84.16374 | 25654 ft | 407 kts | 215° |
| 2026-05-04 20:25 | 41.20672 | -84.18342 | 25997 ft | 409 kts | 216° |
| 2026-05-04 20:25 | 41.18240 | -84.20328 | 26318 ft | 412 kts | 216° |
| 2026-05-04 20:25 | 41.15784 | -84.22322 | 26645 ft | 415 kts | 214° |
| 2026-05-04 20:26 | 41.13320 | -84.24330 | 26958 ft | 417 kts | 217° |
| 2026-05-04 20:26 | 41.10838 | -84.26341 | 27290 ft | 419 kts | 215° |
| 2026-05-04 20:26 | 41.08348 | -84.28371 | 27631 ft | 422 kts | 216° |
| 2026-05-04 20:26 | 41.05835 | -84.30414 | 27953 ft | 424 kts | 216° |
| 2026-05-04 20:27 | 41.04167 | -84.31770 | 28160 ft | 426 kts | 216° |
| 2026-05-04 20:27 | 41.01631 | -84.33825 | 28478 ft | 428 kts | 215° |
| 2026-05-04 20:27 | 40.99087 | -84.35890 | 28781 ft | 430 kts | 215° |
| 2026-05-04 20:27 | 40.96525 | -84.37976 | 29045 ft | 433 kts | 215° |
| 2026-05-04 20:28 | 40.93952 | -84.40068 | 29421 ft | 434 kts | 215° |
| 2026-05-04 20:28 | 40.91387 | -84.42159 | 29831 ft | 433 kts | 216° |
| 2026-05-04 20:28 | 40.88816 | -84.44245 | 30220 ft | 433 kts | 216° |
| 2026-05-04 20:28 | 40.86256 | -84.46331 | 30596 ft | 432 kts | 215° |
| 2026-05-04 20:29 | 40.83700 | -84.48404 | 30995 ft | 431 kts | 216° |
| 2026-05-04 20:29 | 40.81150 | -84.50470 | 31394 ft | 429 kts | 216° |
| 2026-05-04 20:29 | 40.78608 | -84.52531 | 31782 ft | 428 kts | 216° |
| 2026-05-04 20:29 | 40.76069 | -84.54587 | 32177 ft | 428 kts | 215° |
| 2026-05-04 20:30 | 40.73541 | -84.56650 | 32545 ft | 428 kts | 216° |
| 2026-05-04 20:30 | 40.71006 | -84.58707 | 32939 ft | 427 kts | 216° |
| 2026-05-04 20:30 | 40.68479 | -84.60757 | 33333 ft | 426 kts | 216° |
| 2026-05-04 20:30 | 40.65957 | -84.62802 | 33721 ft | 425 kts | 216° |
| 2026-05-04 20:31 | 40.63435 | -84.64844 | 34056 ft | 425 kts | 216° |
| 2026-05-04 20:31 | 40.60925 | -84.66878 | 34379 ft | 424 kts | 216° |
| 2026-05-04 20:31 | 40.58414 | -84.68901 | 34696 ft | 423 kts | 216° |
| 2026-05-04 20:31 | 40.55909 | -84.70918 | 35005 ft | 422 kts | 216° |
| 2026-05-04 20:32 | 40.53408 | -84.72927 | 35307 ft | 421 kts | 216° |
| 2026-05-04 20:32 | 40.50911 | -84.74935 | 35610 ft | 420 kts | 216° |
| 2026-05-04 20:32 | 40.48421 | -84.76940 | 35738 ft | 420 kts | 216° |
| 2026-05-04 20:32 | 40.45930 | -84.78942 | 35765 ft | 419 kts | 216° |
| 2026-05-04 20:33 | 40.40954 | -84.82944 | 35765 ft | 419 kts | 216° |
| 2026-05-04 20:33 | 40.35988 | -84.86943 | 35750 ft | 419 kts | 216° |
| 2026-05-04 20:34 | 40.31016 | -84.90934 | 35765 ft | 419 kts | 216° |
| 2026-05-04 20:34 | 40.26057 | -84.94919 | 35767 ft | 418 kts | 216° |
| 2026-05-04 20:35 | 40.21094 | -84.98911 | 35763 ft | 419 kts | 216° |
| 2026-05-04 20:35 | 40.16162 | -85.02878 | 35775 ft | 419 kts | 216° |
| 2026-05-04 20:36 | 40.11206 | -85.06887 | 35755 ft | 419 kts | 216° |
| 2026-05-04 20:36 | 40.06249 | -85.10918 | 35775 ft | 420 kts | 216° |
| 2026-05-04 20:37 | 40.01293 | -85.14952 | 35789 ft | 420 kts | 216° |
| 2026-05-04 20:37 | 39.96333 | -85.18992 | 35796 ft | 420 kts | 216° |
| 2026-05-04 20:38 | 39.91376 | -85.23037 | 35790 ft | 420 kts | 216° |
| 2026-05-04 20:38 | 39.86425 | -85.27093 | 35797 ft | 420 kts | 216° |
| 2026-05-04 20:39 | 39.81477 | -85.31150 | 35812 ft | 420 kts | 216° |
| 2026-05-04 20:39 | 39.77120 | -85.36031 | 35790 ft | 410 kts | 240° |
| 2026-05-04 20:40 | 39.75865 | -85.39323 | 35786 ft | 405 kts | 255° |
| 2026-05-04 20:40 | 39.75234 | -85.42884 | 35779 ft | 405 kts | 261° |
| 2026-05-04 20:40 | 39.74150 | -85.50052 | 35778 ft | 408 kts | 261° |
| 2026-05-04 20:41 | 39.73042 | -85.57323 | 35799 ft | 410 kts | 260° |
| 2026-05-04 20:41 | 39.71918 | -85.64607 | 35800 ft | 411 kts | 260° |
| 2026-05-04 20:42 | 39.70791 | -85.71898 | 35816 ft | 412 kts | 260° |
| 2026-05-04 20:42 | 39.69659 | -85.79191 | 35830 ft | 412 kts | 260° |
| 2026-05-04 20:43 | 39.68512 | -85.86488 | 35831 ft | 412 kts | 260° |
| 2026-05-04 20:43 | 39.67361 | -85.93785 | 35804 ft | 412 kts | 260° |
| 2026-05-04 20:44 | 39.66208 | -86.01078 | 35802 ft | 412 kts | 260° |
| 2026-05-04 20:44 | 39.65054 | -86.08370 | 35814 ft | 413 kts | 260° |
| 2026-05-04 20:45 | 39.63889 | -86.15669 | 35815 ft | 413 kts | 260° |
| 2026-05-04 20:45 | 39.62726 | -86.22965 | 35812 ft | 413 kts | 260° |
| 2026-05-04 20:46 | 39.61563 | -86.30246 | 35835 ft | 412 kts | 260° |
| 2026-05-04 20:46 | 39.60391 | -86.37527 | 35833 ft | 412 kts | 260° |
| 2026-05-04 20:47 | 39.59214 | -86.44791 | 35825 ft | 412 kts | 259° |
| 2026-05-04 20:47 | 39.58026 | -86.52052 | 35818 ft | 412 kts | 259° |
| 2026-05-04 20:48 | 39.56839 | -86.59317 | 35799 ft | 412 kts | 260° |
| 2026-05-04 20:48 | 39.55645 | -86.66570 | 35807 ft | 411 kts | 260° |
| 2026-05-04 20:49 | 39.54453 | -86.73823 | 35812 ft | 411 kts | 260° |
| 2026-05-04 20:49 | 39.53266 | -86.81015 | 35797 ft | 411 kts | 259° |
| 2026-05-04 20:50 | 39.52060 | -86.88267 | 35798 ft | 411 kts | 259° |
| 2026-05-04 20:50 | 39.50857 | -86.95502 | 35792 ft | 411 kts | 260° |
| 2026-05-04 20:51 | 39.49652 | -87.02746 | 35791 ft | 412 kts | 260° |
| 2026-05-04 20:51 | 39.48436 | -87.09996 | 35790 ft | 411 kts | 260° |
| 2026-05-04 20:52 | 39.47215 | -87.17236 | 35787 ft | 411 kts | 260° |
| 2026-05-04 20:52 | 39.45990 | -87.24463 | 35819 ft | 411 kts | 259° |
| 2026-05-04 20:53 | 39.44766 | -87.31651 | 35820 ft | 411 kts | 259° |
| 2026-05-04 20:53 | 39.43528 | -87.38888 | 35819 ft | 412 kts | 260° |
| 2026-05-04 20:54 | 39.42286 | -87.46119 | 35816 ft | 412 kts | 260° |
| 2026-05-04 20:54 | 39.41039 | -87.53348 | 35812 ft | 412 kts | 260° |
| 2026-05-04 20:55 | 39.39787 | -87.60589 | 35803 ft | 412 kts | 260° |
| 2026-05-04 20:55 | 39.38538 | -87.67820 | 35800 ft | 412 kts | 260° |
| 2026-05-04 20:56 | 39.37294 | -87.74992 | 35779 ft | 411 kts | 260° |
| 2026-05-04 20:56 | 39.36032 | -87.82188 | 35791 ft | 409 kts | 259° |
| 2026-05-04 20:57 | 39.34774 | -87.89351 | 35798 ft | 408 kts | 259° |
| 2026-05-04 20:57 | 39.33518 | -87.96498 | 35797 ft | 407 kts | 259° |
| 2026-05-04 20:58 | 39.32258 | -88.03629 | 35790 ft | 408 kts | 260° |
| 2026-05-04 20:58 | 39.30988 | -88.10774 | 35790 ft | 408 kts | 259° |
| 2026-05-04 20:59 | 39.29711 | -88.17942 | 35783 ft | 410 kts | 259° |
| 2026-05-04 20:59 | 39.28427 | -88.25127 | 35775 ft | 411 kts | 259° |
| 2026-05-04 21:00 | 39.27136 | -88.32329 | 35783 ft | 412 kts | 259° |
| 2026-05-04 21:00 | 39.25839 | -88.39539 | 35788 ft | 413 kts | 259° |
| 2026-05-04 21:01 | 39.24543 | -88.46700 | 35793 ft | 413 kts | 259° |
| 2026-05-04 21:01 | 39.23229 | -88.53911 | 35793 ft | 412 kts | 259° |
| 2026-05-04 21:02 | 39.21915 | -88.61109 | 35799 ft | 412 kts | 259° |
| 2026-05-04 21:02 | 39.20600 | -88.68292 | 35793 ft | 411 kts | 259° |
| 2026-05-04 21:03 | 39.19280 | -88.75471 | 35788 ft | 411 kts | 259° |
| 2026-05-04 21:03 | 39.17963 | -88.82639 | 35778 ft | 411 kts | 259° |
| 2026-05-04 21:04 | 39.16645 | -88.89796 | 35786 ft | 410 kts | 259° |
| 2026-05-04 21:04 | 39.15319 | -88.96939 | 35781 ft | 409 kts | 259° |
| 2026-05-04 21:05 | 39.13996 | -89.04013 | 35782 ft | 409 kts | 259° |
| 2026-05-04 21:05 | 39.12664 | -89.11126 | 35775 ft | 408 kts | 259° |
| 2026-05-04 21:06 | 39.11333 | -89.18233 | 35764 ft | 408 kts | 259° |
| 2026-05-04 21:06 | 39.09998 | -89.25338 | 35756 ft | 408 kts | 259° |
| 2026-05-04 21:07 | 39.08658 | -89.32428 | 35766 ft | 407 kts | 259° |
| 2026-05-04 21:07 | 39.07318 | -89.39500 | 35766 ft | 407 kts | 259° |
| 2026-05-04 21:08 | 39.05971 | -89.46559 | 35766 ft | 406 kts | 259° |
| 2026-05-04 21:08 | 39.04624 | -89.53622 | 35765 ft | 406 kts | 259° |
| 2026-05-04 21:09 | 39.03274 | -89.60625 | 35762 ft | 406 kts | 259° |
| 2026-05-04 21:09 | 39.01908 | -89.67675 | 35767 ft | 406 kts | 259° |
| 2026-05-04 21:10 | 39.00548 | -89.74727 | 35758 ft | 406 kts | 259° |
| 2026-05-04 21:10 | 38.99420 | -89.80581 | 35756 ft | 406 kts | 259° |
| 2026-05-04 21:11 | 38.98055 | -89.87623 | 35761 ft | 406 kts | 259° |
| 2026-05-04 21:11 | 38.96683 | -89.94661 | 35760 ft | 406 kts | 258° |
| 2026-05-04 21:12 | 38.95303 | -90.01690 | 35740 ft | 405 kts | 258° |
| 2026-05-04 21:12 | 38.93928 | -90.08713 | 35755 ft | 405 kts | 258° |
| 2026-05-04 21:13 | 38.92548 | -90.15729 | 35757 ft | 405 kts | 258° |
| 2026-05-04 21:13 | 38.91161 | -90.22734 | 35752 ft | 405 kts | 258° |
| 2026-05-04 21:14 | 38.89776 | -90.29686 | 35727 ft | 404 kts | 258° |
| 2026-05-04 21:14 | 38.88385 | -90.36680 | 35721 ft | 404 kts | 259° |
| 2026-05-04 21:15 | 38.86989 | -90.43666 | 35727 ft | 403 kts | 258° |
| 2026-05-04 21:15 | 38.84620 | -90.50227 | 35735 ft | 412 kts | 239° |
| 2026-05-04 21:16 | 38.80876 | -90.55867 | 35739 ft | 415 kts | 234° |
| 2026-05-04 21:16 | 38.77075 | -90.61455 | 35738 ft | 415 kts | 234° |
| 2026-05-04 21:17 | 38.73287 | -90.67030 | 35736 ft | 415 kts | 234° |
| 2026-05-04 21:17 | 38.69490 | -90.72598 | 35726 ft | 415 kts | 234° |
| 2026-05-04 21:18 | 38.65712 | -90.78119 | 35722 ft | 415 kts | 235° |
| 2026-05-04 21:18 | 38.61912 | -90.83653 | 35713 ft | 413 kts | 235° |
| 2026-05-04 21:19 | 38.58122 | -90.89161 | 35723 ft | 412 kts | 235° |
| 2026-05-04 21:19 | 38.54336 | -90.94660 | 35724 ft | 411 kts | 236° |
| 2026-05-04 21:20 | 38.50563 | -91.00146 | 35723 ft | 411 kts | 236° |
| 2026-05-04 21:20 | 38.46792 | -91.05626 | 35723 ft | 411 kts | 235° |
| 2026-05-04 21:21 | 38.43009 | -91.11098 | 35722 ft | 411 kts | 235° |
| 2026-05-04 21:21 | 38.39226 | -91.16556 | 35748 ft | 411 kts | 236° |
| 2026-05-04 21:22 | 38.35443 | -91.22008 | 35763 ft | 410 kts | 236° |
| 2026-05-04 21:22 | 38.31663 | -91.27452 | 35768 ft | 410 kts | 236° |
| 2026-05-04 21:23 | 38.27880 | -91.32882 | 35767 ft | 410 kts | 236° |
| 2026-05-04 21:23 | 38.24098 | -91.38301 | 35765 ft | 409 kts | 236° |
| 2026-05-04 21:24 | 38.20309 | -91.43727 | 35760 ft | 409 kts | 236° |
| 2026-05-04 21:24 | 38.16530 | -91.49131 | 35742 ft | 409 kts | 236° |
| 2026-05-04 21:25 | 38.12742 | -91.54535 | 35710 ft | 410 kts | 236° |
| 2026-05-04 21:25 | 38.08949 | -91.59951 | 35723 ft | 411 kts | 236° |
| 2026-05-04 21:26 | 38.05142 | -91.65367 | 35732 ft | 411 kts | 236° |
| 2026-05-04 21:26 | 38.01324 | -91.70780 | 35737 ft | 412 kts | 236° |
| 2026-05-04 21:27 | 37.97499 | -91.76193 | 35747 ft | 412 kts | 236° |
| 2026-05-04 21:27 | 37.93667 | -91.81605 | 35730 ft | 412 kts | 236° |
| 2026-05-04 21:28 | 37.89849 | -91.87007 | 35737 ft | 411 kts | 236° |
| 2026-05-04 21:28 | 37.86022 | -91.92408 | 35733 ft | 411 kts | 237° |
| 2026-05-04 21:29 | 37.82204 | -91.97778 | 35751 ft | 410 kts | 237° |
| 2026-05-04 21:29 | 37.78396 | -92.03133 | 35758 ft | 409 kts | 237° |
| 2026-05-04 21:30 | 37.74593 | -92.08474 | 35760 ft | 408 kts | 237° |
| 2026-05-04 21:30 | 37.70809 | -92.13766 | 35759 ft | 408 kts | 237° |
| 2026-05-04 21:31 | 37.65076 | -92.21766 | 35749 ft | 407 kts | 237° |
| 2026-05-04 21:32 | 37.61311 | -92.27024 | 35749 ft | 406 kts | 237° |
| 2026-05-04 21:32 | 37.57522 | -92.32309 | 35761 ft | 406 kts | 238° |
| 2026-05-04 21:33 | 37.53734 | -92.37577 | 35780 ft | 405 kts | 238° |
| 2026-05-04 21:33 | 37.49949 | -92.42831 | 35780 ft | 405 kts | 238° |
| 2026-05-04 21:34 | 37.46164 | -92.48079 | 35777 ft | 407 kts | 238° |
| 2026-05-04 21:34 | 37.42293 | -92.53454 | 35775 ft | 419 kts | 238° |
| 2026-05-04 21:35 | 37.38350 | -92.58896 | 35772 ft | 421 kts | 238° |
| 2026-05-04 21:35 | 37.34396 | -92.64341 | 35762 ft | 421 kts | 238° |
| 2026-05-04 21:36 | 37.30443 | -92.69770 | 35768 ft | 420 kts | 238° |
| 2026-05-04 21:36 | 37.26511 | -92.75168 | 35776 ft | 418 kts | 238° |
| 2026-05-04 21:37 | 37.22586 | -92.80563 | 35780 ft | 418 kts | 238° |
| 2026-05-04 21:37 | 37.18658 | -92.85945 | 35763 ft | 418 kts | 239° |
| 2026-05-04 21:38 | 37.14726 | -92.91320 | 35770 ft | 418 kts | 239° |
| 2026-05-04 21:38 | 37.10795 | -92.96690 | 35776 ft | 418 kts | 239° |
| 2026-05-04 21:39 | 37.06861 | -93.02055 | 35782 ft | 418 kts | 239° |
| 2026-05-04 21:39 | 37.02923 | -93.07408 | 35765 ft | 418 kts | 239° |
| 2026-05-04 21:40 | 36.98987 | -93.12749 | 35780 ft | 417 kts | 239° |
| 2026-05-04 21:40 | 36.95061 | -93.18064 | 35790 ft | 416 kts | 239° |
| 2026-05-04 21:41 | 36.91141 | -93.23370 | 35787 ft | 415 kts | 240° |
| 2026-05-04 21:41 | 36.87250 | -93.28622 | 35805 ft | 414 kts | 240° |
| 2026-05-04 21:42 | 36.83320 | -93.33931 | 35806 ft | 413 kts | 240° |
| 2026-05-04 21:42 | 36.79424 | -93.39201 | 35812 ft | 413 kts | 240° |
| 2026-05-04 21:43 | 36.75510 | -93.44456 | 35814 ft | 413 kts | 240° |
| 2026-05-04 21:43 | 36.71623 | -93.49672 | 35813 ft | 413 kts | 240° |
| 2026-05-04 21:44 | 36.67715 | -93.54908 | 35778 ft | 412 kts | 241° |
| 2026-05-04 21:44 | 36.63813 | -93.60132 | 35794 ft | 411 kts | 241° |
| 2026-05-04 21:45 | 36.59923 | -93.65340 | 35799 ft | 410 kts | 241° |
| 2026-05-04 21:45 | 36.56032 | -93.70536 | 35798 ft | 410 kts | 241° |
| 2026-05-04 21:46 | 36.52132 | -93.75724 | 35805 ft | 410 kts | 241° |
| 2026-05-04 21:46 | 36.48240 | -93.80906 | 35823 ft | 410 kts | 241° |
| 2026-05-04 21:47 | 36.44353 | -93.86066 | 35840 ft | 408 kts | 242° |
| 2026-05-04 21:47 | 36.40486 | -93.91199 | 35827 ft | 406 kts | 242° |
| 2026-05-04 21:48 | 36.36619 | -93.96319 | 35841 ft | 406 kts | 242° |
| 2026-05-04 21:48 | 36.32759 | -94.01420 | 35852 ft | 405 kts | 242° |
| 2026-05-04 21:49 | 36.28910 | -94.06505 | 35852 ft | 404 kts | 242° |
| 2026-05-04 21:49 | 36.24556 | -94.11155 | 35852 ft | 439 kts | 224° |
| 2026-05-04 21:49 | 36.21634 | -94.12621 | 35849 ft | 470 kts | 209° |
| 2026-05-04 21:50 | 36.18335 | -94.13323 | 35842 ft | 486 kts | 203° |
| 2026-05-04 21:50 | 36.11674 | -94.14445 | 35820 ft | 486 kts | 203° |
| 2026-05-04 21:51 | 36.04979 | -94.15593 | 35829 ft | 486 kts | 203° |
| 2026-05-04 21:51 | 35.98289 | -94.16769 | 35836 ft | 485 kts | 203° |
| 2026-05-04 21:52 | 35.91596 | -94.17957 | 35844 ft | 486 kts | 203° |
| 2026-05-04 21:52 | 35.84910 | -94.19136 | 35813 ft | 486 kts | 203° |
| 2026-05-04 21:53 | 35.78217 | -94.20302 | 35814 ft | 485 kts | 203° |
| 2026-05-04 21:53 | 35.72661 | -94.21270 | 35824 ft | 485 kts | 203° |
| 2026-05-04 21:54 | 35.65989 | -94.22431 | 35802 ft | 484 kts | 202° |
| 2026-05-04 21:54 | 35.59312 | -94.23593 | 35831 ft | 484 kts | 202° |
| 2026-05-04 21:55 | 35.52639 | -94.24756 | 35840 ft | 484 kts | 202° |
| 2026-05-04 21:55 | 35.45974 | -94.25917 | 35845 ft | 484 kts | 202° |
| 2026-05-04 21:55 | 35.42693 | -94.26634 | 35844 ft | 470 kts | 210° |
| 2026-05-04 21:56 | 35.39668 | -94.27899 | 35804 ft | 450 kts | 219° |
| 2026-05-04 21:56 | 35.36960 | -94.29651 | 35810 ft | 432 kts | 228° |
| 2026-05-04 21:56 | 35.34576 | -94.31783 | 35812 ft | 417 kts | 235° |
| 2026-05-04 21:57 | 35.30278 | -94.36491 | 35818 ft | 415 kts | 236° |
| 2026-05-04 21:57 | 35.25944 | -94.41181 | 35825 ft | 416 kts | 236° |
| 2026-05-04 21:58 | 35.21600 | -94.45872 | 35828 ft | 417 kts | 236° |
| 2026-05-04 21:58 | 35.17259 | -94.50565 | 35828 ft | 417 kts | 236° |
| 2026-05-04 21:59 | 35.12917 | -94.55260 | 35803 ft | 417 kts | 236° |
| 2026-05-04 21:59 | 35.08567 | -94.59954 | 35803 ft | 417 kts | 237° |
| 2026-05-04 22:00 | 35.04210 | -94.64639 | 35815 ft | 418 kts | 237° |
| 2026-05-04 22:00 | 34.99847 | -94.69322 | 35814 ft | 418 kts | 237° |
| 2026-05-04 22:01 | 34.95487 | -94.74007 | 35820 ft | 418 kts | 237° |
| 2026-05-04 22:01 | 34.91120 | -94.78685 | 35832 ft | 418 kts | 237° |
| 2026-05-04 22:02 | 34.86754 | -94.83359 | 35792 ft | 418 kts | 237° |
| 2026-05-04 22:02 | 34.82381 | -94.88038 | 35802 ft | 418 kts | 236° |
| 2026-05-04 22:03 | 34.77945 | -94.92662 | 35818 ft | 421 kts | 235° |
| 2026-05-04 22:03 | 34.73429 | -94.97225 | 35815 ft | 422 kts | 235° |
| 2026-05-04 22:04 | 34.68924 | -95.01779 | 35825 ft | 421 kts | 235° |
| 2026-05-04 22:04 | 34.64439 | -95.06350 | 35828 ft | 420 kts | 235° |
| 2026-05-04 22:05 | 34.59961 | -95.10915 | 35800 ft | 420 kts | 235° |
| 2026-05-04 22:05 | 34.55479 | -95.15468 | 35813 ft | 421 kts | 235° |
| 2026-05-04 22:06 | 34.50992 | -95.20019 | 35826 ft | 420 kts | 235° |
| 2026-05-04 22:06 | 34.46505 | -95.24568 | 35836 ft | 421 kts | 235° |
| 2026-05-04 22:07 | 34.42004 | -95.29114 | 35841 ft | 421 kts | 234° |
| 2026-05-04 22:07 | 34.37498 | -95.33648 | 35813 ft | 421 kts | 234° |
| 2026-05-04 22:08 | 34.33020 | -95.38132 | 35771 ft | 411 kts | 234° |
| 2026-05-04 22:08 | 34.30805 | -95.40351 | 34902 ft | 417 kts | 234° |
| 2026-05-04 22:08 | 34.28571 | -95.42608 | 34308 ft | 418 kts | 234° |
| 2026-05-04 22:08 | 34.26347 | -95.44842 | 33885 ft | 414 kts | 234° |
| 2026-05-04 22:09 | 34.24105 | -95.47088 | 33368 ft | 411 kts | 234° |
| 2026-05-04 22:09 | 34.21916 | -95.49273 | 32886 ft | 407 kts | 234° |
| 2026-05-04 22:09 | 34.19770 | -95.51410 | 32368 ft | 404 kts | 234° |
| 2026-05-04 22:09 | 34.17612 | -95.53558 | 31859 ft | 401 kts | 233° |
| 2026-05-04 22:10 | 34.15465 | -95.55696 | 31345 ft | 398 kts | 233° |
| 2026-05-04 22:10 | 34.13338 | -95.57816 | 30845 ft | 395 kts | 233° |
| 2026-05-04 22:10 | 34.11229 | -95.59926 | 30342 ft | 393 kts | 233° |
| 2026-05-04 22:10 | 34.09130 | -95.62027 | 29840 ft | 390 kts | 233° |
| 2026-05-04 22:11 | 34.07048 | -95.64106 | 29287 ft | 387 kts | 233° |
| 2026-05-04 22:11 | 34.04985 | -95.66159 | 28831 ft | 382 kts | 232° |
| 2026-05-04 22:11 | 34.02942 | -95.68187 | 28377 ft | 378 kts | 232° |
| 2026-05-04 22:11 | 34.00915 | -95.70191 | 27909 ft | 375 kts | 232° |
| 2026-05-04 22:12 | 33.98907 | -95.72176 | 27460 ft | 371 kts | 231° |
| 2026-05-04 22:12 | 33.96920 | -95.74142 | 27041 ft | 368 kts | 231° |
| 2026-05-04 22:12 | 33.94954 | -95.76094 | 26627 ft | 365 kts | 231° |
| 2026-05-04 22:12 | 33.93003 | -95.78043 | 26209 ft | 363 kts | 230° |
| 2026-05-04 22:13 | 33.91073 | -95.79982 | 25790 ft | 360 kts | 230° |
| 2026-05-04 22:13 | 33.89155 | -95.81914 | 25377 ft | 358 kts | 230° |
| 2026-05-04 22:13 | 33.87243 | -95.83833 | 24964 ft | 357 kts | 229° |
| 2026-05-04 22:13 | 33.85340 | -95.85737 | 24546 ft | 355 kts | 229° |
| 2026-05-04 22:14 | 33.83443 | -95.87632 | 24129 ft | 354 kts | 228° |
| 2026-05-04 22:14 | 33.81554 | -95.89516 | 23697 ft | 353 kts | 227° |
| 2026-05-04 22:14 | 33.79661 | -95.91395 | 23227 ft | 352 kts | 227° |
| 2026-05-04 22:14 | 33.77775 | -95.93258 | 22767 ft | 349 kts | 227° |
| 2026-05-04 22:15 | 33.75906 | -95.95099 | 22324 ft | 346 kts | 227° |
| 2026-05-04 22:15 | 33.74047 | -95.96926 | 21894 ft | 344 kts | 227° |
| 2026-05-04 22:15 | 33.72201 | -95.98742 | 21447 ft | 342 kts | 227° |
| 2026-05-04 22:15 | 33.70366 | -96.00544 | 21010 ft | 340 kts | 226° |
| 2026-05-04 22:16 | 33.68539 | -96.02337 | 20562 ft | 338 kts | 226° |
| 2026-05-04 22:16 | 33.66720 | -96.04125 | 20128 ft | 337 kts | 226° |
| 2026-05-04 22:16 | 33.64910 | -96.05907 | 19688 ft | 336 kts | 226° |
| 2026-05-04 22:16 | 33.63109 | -96.07678 | 19257 ft | 334 kts | 226° |
| 2026-05-04 22:17 | 33.61310 | -96.09447 | 18803 ft | 334 kts | 226° |
| 2026-05-04 22:17 | 33.59517 | -96.11211 | 18375 ft | 332 kts | 226° |
| 2026-05-04 22:17 | 33.57731 | -96.12965 | 17910 ft | 332 kts | 226° |
| 2026-05-04 22:17 | 33.55951 | -96.14708 | 17539 ft | 327 kts | 226° |
| 2026-05-04 22:18 | 33.54204 | -96.16415 | 17195 ft | 323 kts | 226° |
| 2026-05-04 22:18 | 33.52471 | -96.18112 | 16772 ft | 321 kts | 226° |
| 2026-05-04 22:18 | 33.50748 | -96.19802 | 16360 ft | 319 kts | 226° |
| 2026-05-04 22:18 | 33.49033 | -96.21475 | 15938 ft | 318 kts | 225° |
| 2026-05-04 22:19 | 33.47322 | -96.23145 | 15510 ft | 317 kts | 225° |
| 2026-05-04 22:19 | 33.45616 | -96.24816 | 15082 ft | 316 kts | 225° |
| 2026-05-04 22:19 | 33.44029 | -96.26601 | 14662 ft | 311 kts | 234° |
| 2026-05-04 22:19 | 33.42617 | -96.28558 | 14251 ft | 310 kts | 234° |
| 2026-05-04 22:20 | 33.41207 | -96.30510 | 13833 ft | 310 kts | 234° |
| 2026-05-04 22:20 | 33.39797 | -96.32460 | 13398 ft | 310 kts | 234° |
| 2026-05-04 22:20 | 33.38389 | -96.34401 | 12970 ft | 308 kts | 234° |
| 2026-05-04 22:20 | 33.36994 | -96.36321 | 12626 ft | 304 kts | 233° |
| 2026-05-04 22:21 | 33.35607 | -96.38231 | 12284 ft | 301 kts | 233° |
| 2026-05-04 22:21 | 33.34257 | -96.40083 | 12146 ft | 291 kts | 233° |
| 2026-05-04 22:21 | 33.32998 | -96.41932 | 11910 ft | 282 kts | 241° |
| 2026-05-04 22:21 | 33.32162 | -96.43992 | 11732 ft | 273 kts | 253° |
| 2026-05-04 22:22 | 33.31567 | -96.46142 | 11454 ft | 271 kts | 254° |
| 2026-05-04 22:22 | 33.30971 | -96.48278 | 11152 ft | 271 kts | 253° |
| 2026-05-04 22:22 | 33.30379 | -96.50391 | 10966 ft | 264 kts | 253° |
| 2026-05-04 22:22 | 33.29797 | -96.52456 | 10713 ft | 261 kts | 253° |
| 2026-05-04 22:23 | 33.29219 | -96.54516 | 10353 ft | 262 kts | 253° |
| 2026-05-04 22:23 | 33.28723 | -96.56606 | 10005 ft | 262 kts | 262° |
| 2026-05-04 22:23 | 33.28602 | -96.58761 | 9739 ft | 259 kts | 267° |
| 2026-05-04 22:23 | 33.28512 | -96.60900 | 9436 ft | 257 kts | 266° |
| 2026-05-04 22:24 | 33.28418 | -96.63014 | 9108 ft | 257 kts | 266° |
| 2026-05-04 22:24 | 33.28318 | -96.65152 | 8801 ft | 255 kts | 266° |
| 2026-05-04 22:24 | 33.28220 | -96.67262 | 8504 ft | 253 kts | 266° |
| 2026-05-04 22:24 | 33.28122 | -96.69361 | 8146 ft | 253 kts | 265° |
| 2026-05-04 22:25 | 33.28023 | -96.71448 | 7889 ft | 250 kts | 265° |
| 2026-05-04 22:25 | 33.27925 | -96.73527 | 7564 ft | 250 kts | 265° |
| 2026-05-04 22:25 | 33.27829 | -96.75583 | 7382 ft | 244 kts | 265° |
| 2026-05-04 22:25 | 33.27735 | -96.77583 | 7215 ft | 238 kts | 265° |
| 2026-05-04 22:26 | 33.27641 | -96.79552 | 6944 ft | 238 kts | 265° |
| 2026-05-04 22:26 | 33.27546 | -96.81525 | 6645 ft | 237 kts | 264° |
| 2026-05-04 22:26 | 33.27451 | -96.83484 | 6407 ft | 235 kts | 264° |
| 2026-05-04 22:26 | 33.27365 | -96.85429 | 6135 ft | 234 kts | 265° |
| 2026-05-04 22:27 | 33.27294 | -96.87365 | 5871 ft | 231 kts | 265° |
| 2026-05-04 22:27 | 33.27226 | -96.89279 | 5750 ft | 229 kts | 264° |
| 2026-05-04 22:27 | 33.27160 | -96.91181 | 5655 ft | 229 kts | 264° |
| 2026-05-04 22:27 | 33.27092 | -96.93093 | 5564 ft | 230 kts | 265° |
| 2026-05-04 22:28 | 33.27022 | -96.95008 | 5491 ft | 230 kts | 264° |
| 2026-05-04 22:28 | 33.26952 | -96.96917 | 5407 ft | 231 kts | 264° |
| 2026-05-04 22:28 | 33.26881 | -96.98825 | 5327 ft | 228 kts | 264° |
| 2026-05-04 22:28 | 33.26810 | -97.00698 | 5251 ft | 229 kts | 264° |
| 2026-05-04 22:29 | 33.26733 | -97.02594 | 5176 ft | 232 kts | 262° |
| 2026-05-04 22:29 | 33.26233 | -97.04464 | 5107 ft | 243 kts | 236° |
| 2026-05-04 22:29 | 33.25026 | -97.05870 | 5033 ft | 241 kts | 221° |
| 2026-05-04 22:29 | 33.23739 | -97.07125 | 4949 ft | 231 kts | 222° |
| 2026-05-04 22:30 | 33.22539 | -97.08323 | 4880 ft | 226 kts | 222° |
| 2026-05-04 22:30 | 33.21346 | -97.09521 | 4803 ft | 224 kts | 223° |
| 2026-05-04 22:30 | 33.20149 | -97.10723 | 4733 ft | 225 kts | 222° |
| 2026-05-04 22:30 | 33.18950 | -97.11922 | 4662 ft | 223 kts | 222° |
| 2026-05-04 22:31 | 33.17765 | -97.13105 | 4589 ft | 220 kts | 222° |
| 2026-05-04 22:31 | 33.16620 | -97.14243 | 4515 ft | 209 kts | 222° |
| 2026-05-04 22:31 | 33.15529 | -97.15326 | 4440 ft | 200 kts | 221° |
| 2026-05-04 22:31 | 33.14467 | -97.16383 | 4363 ft | 198 kts | 221° |
| 2026-05-04 22:32 | 33.13768 | -97.17080 | 4309 ft | 198 kts | 221° |
| 2026-05-04 22:32 | 33.12707 | -97.18135 | 4238 ft | 198 kts | 221° |
| 2026-05-04 22:32 | 33.11661 | -97.19173 | 4165 ft | 190 kts | 220° |
| 2026-05-04 22:32 | 33.10670 | -97.20154 | 4088 ft | 181 kts | 221° |
| 2026-05-04 22:33 | 33.09705 | -97.21112 | 4009 ft | 181 kts | 220° |
| 2026-05-04 22:33 | 33.08744 | -97.22053 | 3931 ft | 177 kts | 215° |
| 2026-05-04 22:33 | 33.07649 | -97.22705 | 3864 ft | 177 kts | 198° |
| 2026-05-04 22:33 | 33.06432 | -97.22909 | 3796 ft | 177 kts | 183° |
| 2026-05-04 22:34 | 33.05261 | -97.22651 | 3734 ft | 167 kts | 166° |
| 2026-05-04 22:34 | 33.04300 | -97.21949 | 3686 ft | 154 kts | 152° |
| 2026-05-04 22:34 | 33.03500 | -97.21187 | 3602 ft | 142 kts | 151° |
| 2026-05-04 22:34 | 33.02750 | -97.20443 | 3528 ft | 139 kts | 149° |
| 2026-05-04 22:35 | 33.02014 | -97.19699 | 3381 ft | 138 kts | 148° |
| 2026-05-04 22:35 | 33.01288 | -97.18957 | 3218 ft | 137 kts | 147° |
| 2026-05-04 22:35 | 33.00567 | -97.18217 | 3056 ft | 136 kts | 146° |
| 2026-05-04 22:35 | 32.99849 | -97.17477 | 2870 ft | 136 kts | 146° |
| 2026-05-04 22:36 | 32.99137 | -97.16744 | 2704 ft | 136 kts | 147° |
| 2026-05-04 22:36 | 32.98420 | -97.16004 | 2508 ft | 136 kts | 148° |
| 2026-05-04 22:36 | 32.97708 | -97.15270 | 2352 ft | 135 kts | 148° |
| 2026-05-04 22:36 | 32.96999 | -97.14539 | 2177 ft | 135 kts | 148° |
| 2026-05-04 22:37 | 32.96292 | -97.13811 | 2004 ft | 135 kts | 147° |
| 2026-05-04 22:37 | 32.95583 | -97.13080 | 1825 ft | 134 kts | 147° |
| 2026-05-04 22:37 | 32.94872 | -97.12348 | 1647 ft | 135 kts | 146° |
| 2026-05-04 22:37 | 32.94164 | -97.11618 | 1473 ft | 134 kts | 141° |
| 2026-05-04 22:38 | 32.93453 | -97.10884 | 1281 ft | 137 kts | 143° |
| 2026-05-04 22:38 | 32.92731 | -97.10141 | 1100 ft | 136 kts | 142° |
| 2026-05-04 22:38 | 32.92030 | -97.09412 | 942 ft | 134 kts | 144° |
| 2026-05-04 22:38 | 32.91328 | -97.08688 | 782 ft | 135 kts | 143° |
| 2026-05-04 22:39 | 32.90624 | -97.07964 | 636 ft | 133 kts | 143° |
| 2026-05-04 22:39 | 32.89991 | -97.07330 | 594 ft | 95 kts | 140° |
| 2026-05-04 22:39 | 32.89705 | -97.07028 | 596 ft | 29 kts | 139° |
| 2026-05-04 22:39 | 32.89579 | -97.06787 | 594 ft | 33 kts | 109° |
| 2026-05-04 22:40 | 32.89560 | -97.06719 | 594 ft | 0 kts | 108° |
| 2026-05-04 22:40 | 32.89546 | -97.06668 | 592 ft | 2 kts | 108° |
| 2026-05-04 22:40 | 32.89543 | -97.06660 | 592 ft | 1 kts | 109° |
| 2026-05-04 22:41 | 32.89537 | -97.06639 | 592 ft | 5 kts | 109° |
| 2026-05-04 22:41 | 32.89512 | -97.06552 | 590 ft | 23 kts | 109° |
| 2026-05-04 22:41 | 32.89419 | -97.06310 | 591 ft | 26 kts | 139° |
| 2026-05-04 22:41 | 32.89249 | -97.06140 | 592 ft | 36 kts | 140° |
| 2026-05-04 22:42 | 32.89067 | -97.05949 | 595 ft | 35 kts | 139° |
| 2026-05-04 22:42 | 32.89039 | -97.05835 | 598 ft | 20 kts | 84° |
| 2026-05-04 22:42 | 32.89044 | -97.05603 | 598 ft | 23 kts | 90° |
| 2026-05-04 22:42 | 32.89043 | -97.05393 | 596 ft | 29 kts | 88° |
| 2026-05-04 22:43 | 32.89042 | -97.05110 | 588 ft | 37 kts | 91° |
| 2026-05-04 22:43 | 32.89044 | -97.04884 | 591 ft | 18 kts | 88° |
| 2026-05-04 22:43 | 32.89067 | -97.04768 | 591 ft | 12 kts | 16° |
| 2026-05-04 22:43 | 32.89218 | -97.04767 | 595 ft | 38 kts | 0° |
| 2026-05-04 22:44 | 32.89453 | -97.04768 | 595 ft | 6 kts | 0° |
| 2026-05-04 22:44 | 32.89505 | -97.04756 | 596 ft | 7 kts | 40° |
| 2026-05-04 22:44 | 32.89504 | -97.04677 | 597 ft | 8 kts | 90° |
| 2026-05-04 22:44 | 32.89504 | -97.04668 | 598 ft | 0 kts | 90° |
| 2026-05-04 22:45 | 32.89504 | -97.04657 | 598 ft | 0 kts | 90° |
| 2026-05-04 22:46 | 32.89504 | -97.04653 | 598 ft | 0 kts | 90° |
| 2026-05-04 22:47 | 32.89504 | -97.04652 | 598 ft | 1 kts | 93° |
| 2026-05-04 22:47 | 32.89442 | -97.04642 | 598 ft | 10 kts | 155° |
| 2026-05-04 22:48 | 32.89426 | -97.04513 | 598 ft | 16 kts | 93° |
| 2026-05-04 22:48 | 32.89446 | -97.04461 | 598 ft | 5 kts | 5° |
| 2026-05-04 22:48 | 32.89484 | -97.04465 | 598 ft | 8 kts | 1° |
| 2026-05-04 22:48 | 32.89508 | -97.04464 | 598 ft | 0 kts | 0° |
| 2026-05-04 22:49 | 32.89509 | -97.04464 | 598 ft | 0 kts | 0° |